sensor_id;sensor_type;location;lat;lon;timestamp;temperature;humidity
67182;DHT22;54114;53.524;49.396;2023-06-10T00:00:43;21.10;53.80
67182;DHT22;54114;53.524;49.396;2023-06-10T00:03:10;21.10;53.70
67182;DHT22;54114;53.524;49.396;2023-06-10T00:05:38;21.10;53.70
67182;DHT22;54114;53.524;49.396;2023-06-10T00:08:06;21.10;53.50
67182;DHT22;54114;53.524;49.396;2023-06-10T00:10:34;21.10;53.50
67182;DHT22;54114;53.524;49.396;2023-06-10T00:13:05;21.20;53.50
67182;DHT22;54114;53.524;49.396;2023-06-10T00:15:37;21.20;53.40
67182;DHT22;54114;53.524;49.396;2023-06-10T00:18:04;21.20;53.30
67182;DHT22;54114;53.524;49.396;2023-06-10T00:20:31;21.20;53.30
67182;DHT22;54114;53.524;49.396;2023-06-10T00:22:58;21.20;53.30
67182;DHT22;54114;53.524;49.396;2023-06-10T00:25:27;21.20;53.20
67182;DHT22;54114;53.524;49.396;2023-06-10T00:27:55;21.20;53.20
67182;DHT22;54114;53.524;49.396;2023-06-10T00:30:22;21.20;53.40
67182;DHT22;54114;53.524;49.396;2023-06-10T00:32:48;21.20;53.40
67182;DHT22;54114;53.524;49.396;2023-06-10T00:35:15;21.20;53.40
67182;DHT22;54114;53.524;49.396;2023-06-10T00:37:41;21.20;53.30
67182;DHT22;54114;53.524;49.396;2023-06-10T00:40:09;21.30;53.30
67182;DHT22;54114;53.524;49.396;2023-06-10T00:42:36;21.30;53.20
67182;DHT22;54114;53.524;49.396;2023-06-10T00:45:04;21.30;53.20
67182;DHT22;54114;53.524;49.396;2023-06-10T00:47:31;21.30;53.20
67182;DHT22;54114;53.524;49.396;2023-06-10T00:49:58;21.30;53.20
67182;DHT22;54114;53.524;49.396;2023-06-10T00:52:28;21.30;53.20
67182;DHT22;54114;53.524;49.396;2023-06-10T00:54:58;21.30;53.20
67182;DHT22;54114;53.524;49.396;2023-06-10T00:57:25;21.40;53.20
67182;DHT22;54114;53.524;49.396;2023-06-10T00:59:53;21.40;53.10
67182;DHT22;54114;53.524;49.396;2023-06-10T01:02:20;21.40;53.20
67182;DHT22;54114;53.524;49.396;2023-06-10T01:04:47;21.30;53.20
67182;DHT22;54114;53.524;49.396;2023-06-10T01:10:19;21.30;53.50
67182;DHT22;54114;53.524;49.396;2023-06-10T01:13:02;21.30;53.50
67182;DHT22;54114;53.524;49.396;2023-06-10T01:15:33;21.30;53.50
67182;DHT22;54114;53.524;49.396;2023-06-10T01:18:02;21.40;53.50
67182;DHT22;54114;53.524;49.396;2023-06-10T01:20:37;21.40;53.50
67182;DHT22;54114;53.524;49.396;2023-06-10T01:23:07;21.40;53.40
67182;DHT22;54114;53.524;49.396;2023-06-10T01:25:39;21.50;53.50
67182;DHT22;54114;53.524;49.396;2023-06-10T01:28:17;21.60;53.30
67182;DHT22;54114;53.524;49.396;2023-06-10T01:30:55;21.60;53.20
67182;DHT22;54114;53.524;49.396;2023-06-10T01:33:36;21.60;53.20
67182;DHT22;54114;53.524;49.396;2023-06-10T01:36:05;21.70;53.10
67182;DHT22;54114;53.524;49.396;2023-06-10T01:38:36;21.70;53.20
67182;DHT22;54114;53.524;49.396;2023-06-10T01:41:07;21.70;53.20
67182;DHT22;54114;53.524;49.396;2023-06-10T01:43:34;21.80;53.20
67182;DHT22;54114;53.524;49.396;2023-06-10T01:46:01;21.80;52.90
67182;DHT22;54114;53.524;49.396;2023-06-10T01:48:28;21.90;52.90
67182;DHT22;54114;53.524;49.396;2023-06-10T01:50:54;21.90;53.00
67182;DHT22;54114;53.524;49.396;2023-06-10T01:53:24;22.00;52.90
67182;DHT22;54114;53.524;49.396;2023-06-10T01:55:51;22.00;52.70
67182;DHT22;54114;53.524;49.396;2023-06-10T01:58:17;22.10;52.80
67182;DHT22;54114;53.524;49.396;2023-06-10T02:00:44;22.20;52.60
67182;DHT22;54114;53.524;49.396;2023-06-10T02:03:11;22.30;52.50
67182;DHT22;54114;53.524;49.396;2023-06-10T02:05:38;22.30;52.40
67182;DHT22;54114;53.524;49.396;2023-06-10T02:08:05;22.50;52.30
67182;DHT22;54114;53.524;49.396;2023-06-10T02:10:32;22.60;52.20
67182;DHT22;54114;53.524;49.396;2023-06-10T02:12:59;22.70;52.00
67182;DHT22;54114;53.524;49.396;2023-06-10T02:15:25;22.80;51.80
67182;DHT22;54114;53.524;49.396;2023-06-10T02:17:52;22.90;51.70
67182;DHT22;54114;53.524;49.396;2023-06-10T02:20:20;23.00;51.50
67182;DHT22;54114;53.524;49.396;2023-06-10T02:22:47;23.00;51.20
67182;DHT22;54114;53.524;49.396;2023-06-10T02:25:14;23.10;51.30
67182;DHT22;54114;53.524;49.396;2023-06-10T02:27:40;23.20;51.30
67182;DHT22;54114;53.524;49.396;2023-06-10T02:30:07;23.40;51.00
67182;DHT22;54114;53.524;49.396;2023-06-10T02:32:36;23.50;50.60
67182;DHT22;54114;53.524;49.396;2023-06-10T02:35:03;23.70;50.50
67182;DHT22;54114;53.524;49.396;2023-06-10T02:37:30;23.70;50.30
67182;DHT22;54114;53.524;49.396;2023-06-10T02:39:56;23.80;50.10
67182;DHT22;54114;53.524;49.396;2023-06-10T02:42:23;24.00;50.10
67182;DHT22;54114;53.524;49.396;2023-06-10T02:44:50;24.20;49.70
67182;DHT22;54114;53.524;49.396;2023-06-10T02:47:17;24.30;49.40
67182;DHT22;54114;53.524;49.396;2023-06-10T02:49:43;24.50;49.20
67182;DHT22;54114;53.524;49.396;2023-06-10T02:52:10;24.70;48.90
67182;DHT22;54114;53.524;49.396;2023-06-10T02:54:37;24.80;48.60
67182;DHT22;54114;53.524;49.396;2023-06-10T02:57:04;25.00;48.30
67182;DHT22;54114;53.524;49.396;2023-06-10T02:59:32;25.10;48.00
67182;DHT22;54114;53.524;49.396;2023-06-10T03:01:58;25.20;47.80
67182;DHT22;54114;53.524;49.396;2023-06-10T03:04:29;25.30;47.60
67182;DHT22;54114;53.524;49.396;2023-06-10T03:06:56;25.40;47.60
67182;DHT22;54114;53.524;49.396;2023-06-10T03:09:23;25.50;47.40
67182;DHT22;54114;53.524;49.396;2023-06-10T03:11:49;25.70;47.30
67182;DHT22;54114;53.524;49.396;2023-06-10T03:14:16;25.80;47.00
67182;DHT22;54114;53.524;49.396;2023-06-10T03:16:43;25.90;46.90
67182;DHT22;54114;53.524;49.396;2023-06-10T03:19:11;26.10;46.70
67182;DHT22;54114;53.524;49.396;2023-06-10T03:21:38;26.30;46.40
67182;DHT22;54114;53.524;49.396;2023-06-10T03:24:05;26.50;46.30
67182;DHT22;54114;53.524;49.396;2023-06-10T03:26:32;26.60;45.90
67182;DHT22;54114;53.524;49.396;2023-06-10T03:28:58;26.70;45.70
67182;DHT22;54114;53.524;49.396;2023-06-10T03:31:25;26.80;45.30
67182;DHT22;54114;53.524;49.396;2023-06-10T03:33:52;26.90;45.30
67182;DHT22;54114;53.524;49.396;2023-06-10T03:36:18;27.00;45.10
67182;DHT22;54114;53.524;49.396;2023-06-10T03:38:45;27.20;45.00
67182;DHT22;54114;53.524;49.396;2023-06-10T03:41:12;27.20;44.40
67182;DHT22;54114;53.524;49.396;2023-06-10T03:43:38;27.40;44.20
67182;DHT22;54114;53.524;49.396;2023-06-10T03:46:06;27.50;44.00
67182;DHT22;54114;53.524;49.396;2023-06-10T03:48:33;27.60;44.10
67182;DHT22;54114;53.524;49.396;2023-06-10T03:51:00;27.80;43.80
67182;DHT22;54114;53.524;49.396;2023-06-10T03:53:26;28.00;43.50
67182;DHT22;54114;53.524;49.396;2023-06-10T03:55:53;28.40;43.00
67182;DHT22;54114;53.524;49.396;2023-06-10T03:58:20;28.70;42.40
67182;DHT22;54114;53.524;49.396;2023-06-10T04:00:47;28.80;42.10
67182;DHT22;54114;53.524;49.396;2023-06-10T04:03:15;28.80;41.80
67182;DHT22;54114;53.524;49.396;2023-06-10T04:05:42;28.90;41.70
67182;DHT22;54114;53.524;49.396;2023-06-10T04:08:09;29.20;41.30
67182;DHT22;54114;53.524;49.396;2023-06-10T04:10:36;29.40;40.80
67182;DHT22;54114;53.524;49.396;2023-06-10T04:13:03;29.70;41.10
67182;DHT22;54114;53.524;49.396;2023-06-10T04:15:30;30.00;40.20
67182;DHT22;54114;53.524;49.396;2023-06-10T04:17:59;30.10;39.90
67182;DHT22;54114;53.524;49.396;2023-06-10T04:20:27;30.20;39.60
67182;DHT22;54114;53.524;49.396;2023-06-10T04:22:54;30.30;39.50
67182;DHT22;54114;53.524;49.396;2023-06-10T04:25:21;30.30;39.50
67182;DHT22;54114;53.524;49.396;2023-06-10T04:27:47;30.50;39.40
67182;DHT22;54114;53.524;49.396;2023-06-10T04:30:15;30.60;39.10
67182;DHT22;54114;53.524;49.396;2023-06-10T04:32:42;30.70;39.70
67182;DHT22;54114;53.524;49.396;2023-06-10T04:35:12;30.80;38.90
67182;DHT22;54114;53.524;49.396;2023-06-10T04:37:40;30.90;38.90
67182;DHT22;54114;53.524;49.396;2023-06-10T04:40:08;31.00;38.60
67182;DHT22;54114;53.524;49.396;2023-06-10T04:42:36;31.30;38.30
67182;DHT22;54114;53.524;49.396;2023-06-10T04:45:03;31.60;38.00
67182;DHT22;54114;53.524;49.396;2023-06-10T04:47:30;31.70;37.50
67182;DHT22;54114;53.524;49.396;2023-06-10T04:50:00;31.80;37.50
67182;DHT22;54114;53.524;49.396;2023-06-10T04:52:30;32.00;37.20
67182;DHT22;54114;53.524;49.396;2023-06-10T04:54:58;32.10;36.90
67182;DHT22;54114;53.524;49.396;2023-06-10T04:57:25;32.40;36.70
67182;DHT22;54114;53.524;49.396;2023-06-10T04:59:52;32.60;36.40
67182;DHT22;54114;53.524;49.396;2023-06-10T05:02:19;32.50;36.20
67182;DHT22;54114;53.524;49.396;2023-06-10T05:04:46;32.50;36.00
67182;DHT22;54114;53.524;49.396;2023-06-10T05:07:13;32.60;35.80
67182;DHT22;54114;53.524;49.396;2023-06-10T05:09:39;32.80;35.40
67182;DHT22;54114;53.524;49.396;2023-06-10T05:12:06;33.20;35.10
67182;DHT22;54114;53.524;49.396;2023-06-10T05:14:34;33.50;34.90
67182;DHT22;54114;53.524;49.396;2023-06-10T05:17:01;33.80;34.50
67182;DHT22;54114;53.524;49.396;2023-06-10T05:19:28;34.00;34.40
67182;DHT22;54114;53.524;49.396;2023-06-10T05:21:55;34.10;34.50
67182;DHT22;54114;53.524;49.396;2023-06-10T05:24:21;34.10;34.30
67182;DHT22;54114;53.524;49.396;2023-06-10T05:26:49;34.10;34.20
67182;DHT22;54114;53.524;49.396;2023-06-10T05:29:16;34.40;34.30
67182;DHT22;54114;53.524;49.396;2023-06-10T05:31:43;34.40;34.00
67182;DHT22;54114;53.524;49.396;2023-06-10T05:34:09;34.60;33.90
67182;DHT22;54114;53.524;49.396;2023-06-10T05:36:36;34.70;33.50
67182;DHT22;54114;53.524;49.396;2023-06-10T05:39:03;35.00;33.10
67182;DHT22;54114;53.524;49.396;2023-06-10T05:41:30;35.30;32.90
67182;DHT22;54114;53.524;49.396;2023-06-10T05:43:57;35.60;32.80
67182;DHT22;54114;53.524;49.396;2023-06-10T05:46:24;35.80;31.70
67182;DHT22;54114;53.524;49.396;2023-06-10T05:48:50;35.90;31.20
67182;DHT22;54114;53.524;49.396;2023-06-10T05:51:17;36.20;30.90
67182;DHT22;54114;53.524;49.396;2023-06-10T05:53:44;36.50;30.30
67182;DHT22;54114;53.524;49.396;2023-06-10T05:56:13;36.80;29.60
67182;DHT22;54114;53.524;49.396;2023-06-10T05:58:40;37.10;29.40
67182;DHT22;54114;53.524;49.396;2023-06-10T06:01:07;37.30;29.10
67182;DHT22;54114;53.524;49.396;2023-06-10T06:03:33;37.60;28.80
67182;DHT22;54114;53.524;49.396;2023-06-10T06:06:00;37.80;28.50
67182;DHT22;54114;53.524;49.396;2023-06-10T06:08:29;37.90;28.10
67182;DHT22;54114;53.524;49.396;2023-06-10T06:10:56;38.00;28.10
67182;DHT22;54114;53.524;49.396;2023-06-10T06:13:22;38.10;28.10
67182;DHT22;54114;53.524;49.396;2023-06-10T06:15:49;38.00;27.80
67182;DHT22;54114;53.524;49.396;2023-06-10T06:18:16;38.00;27.70
67182;DHT22;54114;53.524;49.396;2023-06-10T06:20:44;38.00;27.60
67182;DHT22;54114;53.524;49.396;2023-06-10T06:23:11;38.20;27.30
67182;DHT22;54114;53.524;49.396;2023-06-10T06:25:38;38.40;27.00
67182;DHT22;54114;53.524;49.396;2023-06-10T06:28:09;38.50;26.90
67182;DHT22;54114;53.524;49.396;2023-06-10T06:30:36;38.70;26.90
67182;DHT22;54114;53.524;49.396;2023-06-10T06:33:03;38.80;26.80
67182;DHT22;54114;53.524;49.396;2023-06-10T06:35:36;39.00;26.90
67182;DHT22;54114;53.524;49.396;2023-06-10T06:38:04;38.80;26.90
67182;DHT22;54114;53.524;49.396;2023-06-10T06:40:31;38.60;27.20
67182;DHT22;54114;53.524;49.396;2023-06-10T06:42:57;38.60;27.10
67182;DHT22;54114;53.524;49.396;2023-06-10T06:45:24;38.60;27.20
67182;DHT22;54114;53.524;49.396;2023-06-10T06:47:51;38.70;27.30
67182;DHT22;54114;53.524;49.396;2023-06-10T06:50:17;38.60;27.00
67182;DHT22;54114;53.524;49.396;2023-06-10T06:52:44;38.80;26.80
67182;DHT22;54114;53.524;49.396;2023-06-10T06:55:11;38.90;26.50
67182;DHT22;54114;53.524;49.396;2023-06-10T06:57:37;38.70;26.40
67182;DHT22;54114;53.524;49.396;2023-06-10T07:00:06;38.60;26.40
67182;DHT22;54114;53.524;49.396;2023-06-10T07:02:35;38.50;26.30
67182;DHT22;54114;53.524;49.396;2023-06-10T07:05:02;38.40;26.20
67182;DHT22;54114;53.524;49.396;2023-06-10T07:07:29;38.20;26.30
67182;DHT22;54114;53.524;49.396;2023-06-10T07:09:56;38.20;26.50
67182;DHT22;54114;53.524;49.396;2023-06-10T07:12:22;38.30;26.30
67182;DHT22;54114;53.524;49.396;2023-06-10T07:14:52;38.30;26.10
67182;DHT22;54114;53.524;49.396;2023-06-10T07:17:19;38.30;26.20
67182;DHT22;54114;53.524;49.396;2023-06-10T07:19:46;38.30;26.10
67182;DHT22;54114;53.524;49.396;2023-06-10T07:22:12;38.40;26.10
67182;DHT22;54114;53.524;49.396;2023-06-10T07:24:40;38.50;26.00
67182;DHT22;54114;53.524;49.396;2023-06-10T07:27:06;38.70;25.90
67182;DHT22;54114;53.524;49.396;2023-06-10T07:29:33;38.80;26.00
67182;DHT22;54114;53.524;49.396;2023-06-10T07:32:03;38.90;25.90
67182;DHT22;54114;53.524;49.396;2023-06-10T07:34:30;38.70;25.90
67182;DHT22;54114;53.524;49.396;2023-06-10T07:36:57;38.70;25.90
67182;DHT22;54114;53.524;49.396;2023-06-10T07:39:23;38.80;26.00
67182;DHT22;54114;53.524;49.396;2023-06-10T07:41:50;38.80;26.20
67182;DHT22;54114;53.524;49.396;2023-06-10T07:44:20;38.80;26.30
67182;DHT22;54114;53.524;49.396;2023-06-10T07:46:47;38.70;26.10
67182;DHT22;54114;53.524;49.396;2023-06-10T07:49:13;38.50;26.40
67182;DHT22;54114;53.524;49.396;2023-06-10T07:51:40;38.60;26.50
67182;DHT22;54114;53.524;49.396;2023-06-10T07:54:07;38.50;26.60
67182;DHT22;54114;53.524;49.396;2023-06-10T07:56:34;38.30;26.80
67182;DHT22;54114;53.524;49.396;2023-06-10T07:59:01;38.20;27.00
67182;DHT22;54114;53.524;49.396;2023-06-10T08:01:28;38.30;27.10
67182;DHT22;54114;53.524;49.396;2023-06-10T08:03:56;38.30;27.10
67182;DHT22;54114;53.524;49.396;2023-06-10T08:06:22;38.50;27.10
67182;DHT22;54114;53.524;49.396;2023-06-10T08:08:49;38.40;27.10
67182;DHT22;54114;53.524;49.396;2023-06-10T08:11:16;38.20;27.20
67182;DHT22;54114;53.524;49.396;2023-06-10T08:13:42;38.20;27.20
67182;DHT22;54114;53.524;49.396;2023-06-10T08:16:09;38.60;27.30
67182;DHT22;54114;53.524;49.396;2023-06-10T08:18:36;38.90;27.20
67182;DHT22;54114;53.524;49.396;2023-06-10T08:21:03;39.20;27.10
67182;DHT22;54114;53.524;49.396;2023-06-10T08:23:29;39.10;27.10
67182;DHT22;54114;53.524;49.396;2023-06-10T08:25:56;38.90;27.40
67182;DHT22;54114;53.524;49.396;2023-06-10T08:28:24;38.90;27.50
67182;DHT22;54114;53.524;49.396;2023-06-10T08:30:50;39.00;27.50
67182;DHT22;54114;53.524;49.396;2023-06-10T08:33:17;38.80;27.50
67182;DHT22;54114;53.524;49.396;2023-06-10T08:35:44;38.40;27.60
67182;DHT22;54114;53.524;49.396;2023-06-10T08:38:11;38.10;28.00
67182;DHT22;54114;53.524;49.396;2023-06-10T08:40:37;37.80;28.20
67182;DHT22;54114;53.524;49.396;2023-06-10T08:43:08;37.90;28.30
67182;DHT22;54114;53.524;49.396;2023-06-10T08:45:46;37.80;28.40
